createdAt,value
2019-04-06T00:02:20.065Z,11.60
2019-04-06T00:04:54.374Z,11.50
2019-04-06T00:07:28.961Z,11.50
2019-04-06T00:10:03.689Z,11.44
2019-04-06T00:12:38.314Z,11.42
2019-04-06T00:15:13.300Z,11.42
2019-04-06T00:17:47.965Z,11.44
2019-04-06T00:20:22.735Z,11.43
2019-04-06T00:22:57.297Z,11.43
2019-04-06T00:25:31.805Z,11.36
2019-04-06T00:28:06.297Z,11.36
2019-04-06T00:30:57.296Z,11.38
2019-04-06T00:33:31.914Z,11.35
2019-04-06T00:36:06.428Z,11.35
2019-04-06T00:38:40.965Z,11.42
2019-04-06T00:41:15.883Z,11.39
2019-04-06T00:43:50.682Z,11.38
2019-04-06T00:46:25.299Z,11.38
2019-04-06T00:48:59.740Z,11.32
2019-04-06T00:51:33.058Z,11.33
2019-04-06T00:54:05.886Z,11.26
2019-04-06T00:56:38.830Z,11.26
2019-04-06T00:59:13.289Z,11.22
2019-04-06T01:01:48.911Z,11.16
2019-04-06T01:04:23.359Z,11.11
2019-04-06T01:06:57.970Z,11.03
2019-04-06T01:09:32.864Z,11.03
2019-04-06T01:12:07.463Z,11.03
2019-04-06T01:14:42.143Z,11.00
2019-04-06T01:17:16.815Z,10.98
2019-04-06T01:19:49.701Z,11.03
2019-04-06T01:22:24.214Z,11.02
2019-04-06T01:24:58.911Z,11.02
2019-04-06T01:27:33.406Z,10.98
2019-04-06T01:30:09.612Z,10.99
2019-04-06T01:32:44.152Z,10.94
2019-04-06T01:35:18.749Z,10.82
2019-04-06T01:37:54.170Z,10.82
2019-04-06T01:40:28.734Z,10.81
2019-04-06T01:43:02.062Z,10.81
2019-04-06T01:45:35.097Z,10.76
2019-04-06T01:48:09.382Z,10.72
2019-04-06T01:50:43.968Z,10.71
2019-04-06T01:53:18.792Z,10.66
2019-04-06T01:55:51.838Z,10.62
2019-04-06T01:58:26.294Z,10.62
2019-04-06T02:01:16.633Z,10.60
2019-04-06T02:03:51.568Z,10.57
2019-04-06T02:06:26.148Z,10.54
2019-04-06T02:09:00.764Z,10.56
2019-04-06T02:11:36.911Z,10.56
2019-04-06T02:14:10.289Z,10.52
2019-04-06T02:16:46.286Z,10.46
2019-04-06T02:19:21.288Z,10.46
2019-04-06T02:21:55.877Z,10.45
2019-04-06T02:24:29.033Z,10.39
2019-04-06T02:27:03.298Z,10.39
2019-04-06T02:29:37.767Z,10.34
2019-04-06T02:32:29.298Z,10.31
2019-04-06T02:35:34.884Z,10.25
2019-04-06T02:38:26.503Z,10.23
2019-04-06T02:41:22.708Z,10.20
2019-04-06T02:43:57.349Z,10.15
2019-04-06T02:46:31.954Z,10.15
2019-04-06T02:49:06.666Z,10.12
2019-04-06T02:51:41.148Z,10.14
2019-04-06T02:54:15.753Z,10.16
2019-04-06T02:56:50.127Z,10.18
2019-04-06T02:59:24.743Z,10.21
2019-04-06T03:01:59.420Z,10.20
2019-04-06T03:04:34.298Z,10.23
2019-04-06T03:07:08.957Z,10.23
2019-04-06T03:09:42.428Z,10.12
2019-04-06T03:12:16.815Z,10.08
2019-04-06T03:14:50.289Z,10.03
2019-04-06T03:18:46.965Z,9.92
2019-04-06T03:21:21.713Z,9.92
2019-04-06T03:23:56.288Z,9.92
2019-04-06T03:26:31.022Z,9.94
2019-04-06T03:29:06.292Z,9.93
2019-04-06T03:31:41.296Z,9.92
2019-04-06T03:34:20.474Z,9.94
2019-04-06T03:36:51.960Z,10.01
2019-04-06T03:39:28.294Z,9.92
2019-04-06T03:42:02.926Z,9.92
2019-04-06T03:44:36.072Z,9.89
2019-04-06T03:49:48.884Z,9.94
2019-04-06T03:52:21.995Z,9.88
2019-04-06T03:54:56.271Z,9.88
2019-04-06T03:57:30.757Z,9.91
2019-04-06T04:00:04.208Z,9.91
2019-04-06T04:02:38.391Z,9.84
2019-04-06T04:05:12.957Z,9.77
2019-04-06T04:07:47.321Z,9.71
2019-04-06T04:10:41.651Z,9.71
2019-04-06T04:13:16.083Z,9.65
2019-04-06T04:15:50.617Z,9.58
2019-04-06T04:18:24.940Z,9.58
2019-04-06T04:20:59.522Z,9.54
2019-04-06T04:23:33.940Z,9.53
2019-04-06T04:26:07.035Z,9.52
2019-04-06T04:28:41.304Z,9.47
2019-04-06T04:31:15.864Z,9.41
2019-04-06T04:33:51.356Z,9.42
2019-04-06T04:36:25.939Z,9.38
2019-04-06T04:39:00.094Z,9.36
2019-04-06T04:41:34.685Z,9.34
2019-04-06T04:44:09.093Z,9.37
2019-04-06T04:46:43.876Z,9.35
2019-04-06T04:49:33.705Z,9.39
2019-04-06T04:52:08.332Z,9.33
2019-04-06T04:54:42.745Z,9.37
2019-04-06T04:57:16.022Z,9.35
2019-04-06T04:59:50.319Z,9.40
2019-04-06T05:02:25.022Z,9.44
2019-04-06T05:04:59.312Z,9.42
2019-04-06T05:07:33.728Z,9.38
2019-04-06T05:10:08.750Z,9.39
2019-04-06T05:12:43.269Z,9.40
2019-04-06T05:15:25.311Z,9.47
2019-04-06T05:17:59.724Z,9.49
2019-04-06T05:20:32.697Z,9.51
2019-04-06T05:23:06.941Z,9.55
2019-04-06T05:25:39.858Z,9.57
2019-04-06T05:28:14.105Z,9.66
2019-04-06T05:30:48.626Z,9.88
2019-04-06T05:33:23.274Z,9.88
2019-04-06T05:35:57.709Z,9.99
2019-04-06T05:38:32.298Z,10.04
2019-04-06T05:43:04.875Z,10.39
2019-04-06T05:45:39.403Z,10.39
2019-04-06T05:48:14.248Z,10.51
2019-04-06T05:50:48.668Z,10.63
2019-04-06T05:53:23.106Z,10.79
2019-04-06T05:55:57.655Z,11.14
2019-04-06T05:58:30.737Z,11.14
2019-04-06T06:01:05.079Z,11.23
2019-04-06T06:03:40.927Z,11.34
2019-04-06T06:06:16.934Z,11.51
2019-04-06T06:08:49.997Z,11.71
2019-04-06T06:11:24.275Z,11.85
2019-04-06T06:13:58.942Z,11.90
2019-04-06T06:16:33.243Z,12.09
2019-04-06T06:19:07.888Z,12.28
2019-04-06T06:21:40.959Z,12.46
2019-04-06T06:24:15.351Z,12.57
2019-04-06T06:26:49.939Z,12.81
2019-04-06T06:29:24.960Z,12.99
2019-04-06T06:31:59.632Z,13.19
2019-04-06T06:34:33.937Z,13.19
2019-04-06T06:37:07.188Z,13.44
2019-04-06T06:39:41.463Z,13.57
2019-04-06T06:42:15.938Z,13.76
2019-04-06T06:44:50.290Z,14.20
2019-04-06T06:47:24.745Z,14.20
2019-04-06T06:49:59.253Z,14.45
2019-04-06T06:52:33.865Z,14.75
2019-04-06T06:55:07.324Z,15.04
2019-04-06T06:57:43.324Z,15.34
2019-04-06T07:00:18.078Z,15.71
2019-04-06T07:04:33.705Z,16.21
2019-04-06T07:07:08.324Z,16.21
2019-04-06T07:09:42.913Z,16.34
2019-04-06T07:12:15.998Z,16.41
2019-04-06T07:14:50.059Z,16.60
2019-04-06T07:17:56.662Z,16.92
2019-04-06T07:20:31.557Z,17.08
2019-04-06T07:23:06.361Z,17.16
2019-04-06T07:25:40.715Z,17.37
2019-04-06T07:28:15.111Z,17.57
2019-04-06T07:30:49.607Z,18.00
2019-04-06T07:33:24.326Z,18.00
2019-04-06T07:35:59.055Z,18.16
2019-04-06T07:38:33.796Z,18.58
2019-04-06T07:41:08.367Z,18.58
2019-04-06T07:43:42.886Z,18.74
2019-04-06T07:46:15.857Z,18.84
2019-04-06T07:48:50.141Z,18.98
2019-04-06T07:51:24.726Z,19.04
2019-04-06T07:54:58.942Z,19.93
2019-04-06T07:57:34.307Z,19.93
2019-04-06T08:00:09.273Z,20.31
2019-04-06T08:02:43.822Z,20.67
2019-04-06T08:05:16.895Z,21.21
2019-04-06T08:07:50.027Z,21.57
2019-04-06T08:10:24.286Z,22.25
2019-04-06T08:12:58.670Z,23.03
2019-04-06T08:15:33.095Z,23.70
2019-04-06T08:18:07.755Z,24.47
2019-04-06T08:20:42.107Z,25.55
2019-04-06T08:23:16.638Z,27.21
2019-04-06T08:25:51.271Z,27.21
2019-04-06T08:28:25.745Z,28.03
2019-04-06T08:30:59.923Z,28.82
2019-04-06T08:33:32.917Z,29.43
2019-04-06T08:36:07.258Z,30.00
2019-04-06T08:38:41.698Z,30.43
2019-04-06T08:41:15.926Z,30.56
2019-04-06T08:43:51.650Z,30.94
2019-04-06T08:46:26.117Z,30.94
2019-04-06T08:49:00.653Z,31.58
2019-04-06T08:51:35.088Z,31.58
2019-04-06T08:54:09.691Z,32.08
2019-04-06T08:56:45.668Z,32.08
2019-04-06T08:59:19.272Z,32.23
2019-04-06T09:01:53.336Z,32.18
2019-04-06T09:04:27.782Z,32.18
2019-04-06T09:07:00.773Z,32.18
2019-04-06T09:09:35.292Z,32.23
2019-04-06T09:12:09.788Z,32.08
2019-04-06T09:14:42.676Z,32.09
2019-04-06T09:17:17.084Z,32.03
2019-04-06T09:19:51.617Z,32.27
2019-04-06T09:22:26.339Z,32.27
2019-04-06T09:25:01.251Z,32.04
2019-04-06T09:27:35.768Z,31.84
2019-04-06T09:30:08.872Z,31.76
2019-04-06T09:32:41.678Z,31.83
2019-04-06T09:35:15.956Z,31.84
2019-04-06T09:37:50.192Z,32.10
2019-04-06T09:40:24.746Z,32.17
2019-04-06T09:42:59.289Z,32.07
2019-04-06T09:46:04.499Z,32.02
2019-04-06T09:49:06.299Z,32.08
2019-04-06T09:52:11.647Z,32.05
2019-04-06T09:55:01.420Z,32.01
2019-04-06T09:57:50.281Z,31.42
2019-04-06T10:00:37.659Z,31.25
2019-04-06T10:03:41.130Z,31.25
2019-04-06T10:06:28.939Z,31.67
2019-04-06T10:09:24.855Z,31.91
2019-04-06T10:12:35.947Z,31.91
2019-04-06T10:15:18.302Z,32.21
2019-04-06T10:18:10.400Z,32.00
2019-04-06T10:21:17.869Z,32.15
2019-04-06T10:24:06.685Z,32.39
2019-04-06T10:27:01.620Z,32.26
2019-04-06T10:29:55.687Z,32.52
2019-04-06T10:32:50.841Z,32.77
2019-04-06T10:35:42.551Z,33.06
2019-04-06T10:38:33.954Z,33.08
2019-04-06T10:41:27.277Z,32.68
2019-04-06T10:44:12.921Z,32.68
2019-04-06T10:46:53.162Z,32.59
2019-04-06T10:52:20.577Z,33.46
2019-04-06T10:55:22.953Z,33.70
2019-04-06T10:58:25.278Z,33.94
2019-04-06T11:01:17.614Z,34.14
2019-04-06T11:04:10.832Z,34.52
2019-04-06T11:07:02.716Z,34.99
2019-04-06T11:09:51.414Z,35.34
2019-04-06T11:12:42.647Z,35.59
2019-04-06T11:15:29.398Z,35.96
2019-04-06T11:21:18.283Z,36.49
2019-04-06T11:24:12.273Z,36.87
2019-04-06T11:26:56.854Z,36.80
2019-04-06T11:29:44.463Z,36.80
2019-04-06T11:32:37.612Z,36.77
2019-04-06T11:35:29.674Z,36.87
2019-04-06T11:38:21.425Z,37.23
2019-04-06T11:41:15.559Z,37.43
2019-04-06T11:44:04.317Z,37.35
2019-04-06T11:47:12.670Z,37.77
2019-04-06T11:50:10.279Z,37.77
2019-04-06T11:53:03.299Z,37.88
2019-04-06T11:55:53.842Z,38.31
2019-04-06T11:58:46.875Z,38.46
2019-04-06T12:01:49.243Z,36.20
2019-04-06T12:04:49.976Z,34.96
2019-04-06T12:07:40.605Z,37.07
2019-04-06T12:10:32.576Z,37.07
2019-04-06T12:13:25.635Z,37.73
2019-04-06T12:16:11.644Z,38.21
2019-04-06T12:19:14.070Z,38.29
2019-04-06T12:22:06.288Z,37.84
2019-04-06T12:25:08.927Z,37.84
2019-04-06T12:28:02.019Z,37.39
2019-04-06T12:30:57.066Z,34.90
2019-04-06T12:33:56.266Z,33.68
2019-04-06T12:36:49.298Z,33.68
2019-04-06T12:39:32.170Z,31.72
2019-04-06T12:42:15.113Z,29.06
2019-04-06T12:45:20.510Z,29.06
2019-04-06T12:48:13.945Z,28.33
2019-04-06T12:51:09.470Z,27.93
2019-04-06T12:54:09.271Z,26.97
2019-04-06T12:56:57.549Z,26.42
2019-04-06T12:59:49.309Z,25.92
2019-04-06T13:02:42.941Z,25.58
2019-04-06T13:05:42.479Z,25.28
2019-04-06T13:08:35.515Z,24.92
2019-04-06T13:11:22.682Z,24.72
2019-04-06T13:14:30.009Z,24.51
2019-04-06T13:17:12.532Z,23.91
2019-04-06T13:20:07.274Z,23.91
2019-04-06T13:23:05.988Z,23.73
2019-04-06T13:26:05.399Z,23.54
2019-04-06T13:29:00.733Z,23.38
2019-04-06T13:31:46.733Z,23.31
2019-04-06T13:34:39.621Z,23.09
2019-04-06T13:37:32.598Z,22.99
2019-04-06T13:40:29.274Z,22.98
2019-04-06T13:43:21.266Z,22.91
2019-04-06T13:46:14.370Z,22.84
2019-04-06T13:49:10.335Z,22.97
2019-04-06T13:52:15.951Z,23.00
2019-04-06T13:55:12.093Z,23.40
2019-04-06T13:58:05.240Z,24.43
2019-04-06T14:01:14.340Z,24.43
2019-04-06T14:05:55.553Z,28.13
2019-04-06T14:08:51.533Z,27.83
2019-04-06T14:11:51.368Z,26.88
2019-04-06T14:14:42.276Z,26.88
2019-04-06T14:17:50.584Z,26.40
2019-04-06T14:20:55.421Z,26.42
2019-04-06T14:23:57.936Z,25.79
2019-04-06T14:26:49.878Z,24.94
2019-04-06T14:29:48.571Z,24.94
2019-04-06T14:32:42.418Z,24.93
2019-04-06T14:35:34.368Z,24.93
2019-04-06T14:38:27.593Z,27.58
2019-04-06T14:41:29.772Z,27.68
2019-04-06T14:44:28.952Z,27.80
2019-04-06T14:47:21.729Z,29.13
2019-04-06T14:50:14.692Z,30.49
2019-04-06T14:53:08.409Z,30.87
2019-04-06T14:55:48.601Z,28.94
2019-04-06T14:58:53.636Z,27.94
2019-04-06T15:01:55.553Z,27.67
2019-04-06T15:04:27.115Z,27.33
2019-04-06T15:07:36.091Z,27.68
2019-04-06T15:10:29.470Z,27.68
2019-04-06T15:13:19.040Z,28.05
2019-04-06T15:16:15.555Z,26.54
2019-04-06T15:19:10.497Z,26.54
2019-04-06T15:22:12.553Z,25.67
2019-04-06T15:25:04.765Z,24.85
2019-04-06T15:27:44.497Z,23.90
2019-04-06T15:30:36.500Z,23.90
2019-04-06T15:33:33.067Z,23.52
2019-04-06T15:36:29.762Z,23.26
2019-04-06T15:39:33.784Z,22.90
2019-04-06T15:42:16.606Z,22.69
2019-04-06T15:45:11.394Z,22.57
2019-04-06T15:47:53.276Z,22.42
2019-04-06T15:50:38.610Z,22.35
2019-04-06T15:53:34.472Z,22.20
2019-04-06T15:56:40.366Z,22.07
2019-04-06T16:04:49.583Z,21.57
2019-04-06T16:07:46.068Z,21.57
2019-04-06T16:10:38.666Z,21.37
2019-04-06T16:13:32.180Z,21.39
2019-04-06T16:16:17.656Z,21.30
2019-04-06T16:18:57.274Z,21.09
2019-04-06T16:21:50.665Z,21.09
2019-04-06T16:24:52.702Z,20.98
2019-04-06T16:28:00.953Z,20.94
2019-04-06T16:30:53.941Z,20.85
2019-04-06T16:33:38.280Z,20.77
2019-04-06T16:36:37.768Z,20.63
2019-04-06T16:39:29.513Z,20.56
2019-04-06T16:42:38.272Z,20.54
2019-04-06T16:45:22.837Z,20.55
2019-04-06T16:48:32.342Z,20.54
2019-04-06T16:51:25.282Z,20.49
2019-04-06T16:54:10.503Z,20.41
2019-04-06T16:57:00.854Z,20.35
2019-04-06T16:59:46.326Z,20.27
2019-04-06T17:02:42.356Z,20.23
2019-04-06T17:05:38.359Z,20.28
2019-04-06T17:08:22.125Z,20.29
2019-04-06T17:11:15.337Z,20.17
2019-04-06T17:14:01.619Z,20.17
2019-04-06T17:16:53.428Z,20.17
2019-04-06T17:19:55.759Z,20.09
2019-04-06T17:22:56.853Z,19.95
2019-04-06T17:25:55.758Z,19.81
2019-04-06T17:28:39.020Z,19.68
2019-04-06T17:31:43.852Z,19.44
2019-04-06T17:34:52.766Z,19.29
2019-04-06T17:37:29.982Z,19.05
2019-04-06T17:40:10.724Z,18.90
2019-04-06T17:43:02.874Z,18.90
2019-04-06T17:46:07.132Z,18.84
2019-04-06T17:48:59.944Z,18.74
2019-04-06T17:51:42.112Z,18.69
2019-04-06T17:54:36.741Z,18.63
2019-04-06T17:57:39.069Z,18.42
2019-04-06T18:00:41.704Z,18.25
2019-04-06T18:03:42.875Z,18.25
2019-04-06T18:06:28.647Z,18.26
2019-04-06T18:09:14.000Z,18.22
2019-04-06T18:11:56.573Z,18.17
2019-04-06T18:14:31.442Z,18.10
2019-04-06T18:17:06.455Z,18.04
2019-04-06T18:19:40.941Z,17.91
2019-04-06T18:22:15.725Z,17.71
2019-04-06T18:24:49.023Z,17.71
2019-04-06T18:27:22.023Z,17.66
2019-04-06T18:29:56.684Z,17.59
2019-04-06T18:32:41.276Z,17.60
2019-04-06T18:35:15.677Z,17.63
2019-04-06T18:38:07.295Z,17.50
2019-04-06T18:40:41.801Z,17.50
2019-04-06T18:43:16.272Z,17.44
2019-04-06T18:45:50.756Z,17.44
2019-04-06T18:48:23.692Z,17.41
2019-04-06T18:50:58.108Z,17.39
2019-04-06T18:53:33.074Z,17.31
2019-04-06T18:56:07.883Z,17.30
2019-04-06T18:58:42.470Z,17.30
2019-04-06T19:01:17.317Z,17.30
2019-04-06T19:03:51.950Z,17.20
2019-04-06T19:06:25.307Z,17.25
2019-04-06T19:08:59.987Z,17.19
2019-04-06T19:11:34.647Z,17.22
2019-04-06T19:14:09.563Z,17.24
2019-04-06T19:16:44.291Z,17.27
2019-04-06T19:19:19.336Z,17.18
2019-04-06T19:21:53.958Z,17.19
2019-04-06T19:24:28.411Z,17.20
2019-04-06T19:27:03.400Z,17.17
2019-04-06T19:29:38.319Z,17.07
2019-04-06T19:32:13.283Z,17.00
2019-04-06T19:34:48.170Z,16.95
2019-04-06T19:37:22.927Z,16.86
2019-04-06T19:39:57.337Z,16.79
2019-04-06T19:42:31.897Z,16.81
2019-04-06T19:45:05.605Z,16.82
2019-04-06T19:47:40.787Z,16.67
2019-04-06T19:50:15.719Z,16.67
2019-04-06T19:52:48.658Z,16.62
2019-04-06T19:55:23.014Z,16.56
2019-04-06T19:57:57.308Z,16.50
2019-04-06T20:00:31.956Z,16.43
2019-04-06T20:03:06.309Z,16.39
2019-04-06T20:05:41.254Z,16.36
2019-04-06T20:08:17.270Z,16.28
2019-04-06T20:10:51.953Z,16.28
2019-04-06T20:13:28.659Z,16.21
2019-04-06T20:16:04.613Z,16.18
2019-04-06T20:18:39.018Z,16.18
2019-04-06T20:21:14.203Z,16.07
2019-04-06T20:23:48.720Z,16.07
2019-04-06T20:26:24.127Z,16.07
2019-04-06T20:28:58.966Z,16.12
2019-04-06T20:31:34.128Z,16.05
2019-04-06T20:34:08.723Z,15.98
2019-04-06T20:36:43.141Z,15.94
2019-04-06T20:39:17.750Z,15.89
2019-04-06T20:41:52.278Z,15.85
2019-04-06T20:44:26.711Z,15.83
2019-04-06T20:47:01.590Z,15.69
2019-04-06T20:49:36.256Z,15.69
2019-04-06T20:52:10.783Z,15.61
2019-04-06T20:54:43.690Z,15.56
2019-04-06T20:57:19.962Z,15.48
2019-04-06T20:59:54.342Z,15.50
2019-04-06T21:02:28.925Z,15.47
2019-04-06T21:05:02.184Z,15.51
2019-04-06T21:07:37.059Z,15.42
2019-04-06T21:10:12.087Z,15.39
2019-04-06T21:12:46.775Z,15.39
2019-04-06T21:15:21.348Z,15.40
2019-04-06T21:17:56.143Z,15.36
2019-04-06T21:20:31.455Z,15.31
2019-04-06T21:23:06.358Z,15.28
2019-04-06T21:25:42.965Z,15.24
2019-04-06T21:28:18.171Z,15.12
2019-04-06T21:30:53.316Z,15.12
2019-04-06T21:33:28.621Z,15.20
2019-04-06T21:36:03.332Z,15.19
2019-04-06T21:38:38.883Z,15.13
2019-04-06T21:41:12.101Z,15.13
2019-04-06T21:43:45.694Z,15.04
2019-04-06T21:46:20.303Z,15.09
2019-04-06T21:48:56.924Z,15.07
2019-04-06T21:51:32.387Z,15.07
2019-04-06T21:54:07.810Z,15.03
2019-04-06T21:56:42.517Z,15.03
2019-04-06T21:59:17.475Z,15.00
2019-04-06T22:01:53.430Z,14.83
2019-04-06T22:04:29.532Z,14.83
2019-04-06T22:07:04.297Z,14.78
2019-04-06T22:12:17.528Z,14.64
2019-04-06T22:17:24.429Z,14.60
2019-04-06T22:19:59.323Z,14.59
2019-04-06T22:22:35.353Z,14.57
2019-04-06T22:25:10.287Z,14.59
2019-04-06T22:27:45.927Z,14.66
2019-04-06T22:30:20.824Z,14.66
2019-04-06T22:32:54.973Z,14.66
2019-04-06T22:35:30.405Z,14.67
2019-04-06T22:38:05.667Z,14.61
2019-04-06T22:40:40.646Z,14.61
2019-04-06T22:45:42.500Z,14.49
2019-04-06T22:48:17.411Z,14.39
2019-04-06T22:50:53.294Z,14.30
2019-04-06T22:53:28.279Z,14.24
2019-04-06T22:56:03.290Z,14.22
2019-04-06T22:58:38.492Z,14.18
2019-04-06T23:01:15.101Z,14.12
2019-04-06T23:04:20.773Z,14.05
2019-04-06T23:07:00.885Z,14.03
2019-04-06T23:09:36.017Z,14.00
2019-04-06T23:12:11.955Z,13.86
2019-04-06T23:14:46.683Z,13.84
2019-04-06T23:17:21.293Z,13.80
2019-04-06T23:19:55.955Z,13.80
2019-04-06T23:22:30.962Z,13.75
2019-04-06T23:25:05.957Z,13.74
2019-04-06T23:27:40.489Z,13.74
2019-04-06T23:30:15.818Z,13.76
2019-04-06T23:32:50.674Z,13.82
2019-04-06T23:35:25.287Z,13.79
2019-04-06T23:37:59.768Z,13.79
2019-04-06T23:40:34.263Z,13.76
2019-04-06T23:43:09.129Z,13.63
2019-04-06T23:45:44.817Z,13.47
2019-04-06T23:48:19.837Z,13.47
2019-04-06T23:50:54.953Z,13.36
2019-04-06T23:53:29.403Z,13.31
2019-04-06T23:58:33.901Z,13.18
